Time;durP1;ratioP1;P1;durP2;ratioP2;P2;SDS_P1;SDS_P2;PMS_P1;PMS_P2;Temp;Humidity;BMP_temperature;BMP_pressure;BME280_temperature;BME280_humidity;BME280_pressure;Samples;Min_cycle;Max_cycle;Signal;HPM_P1;HPM_P2
2020/12/27 00:02:08;;;;;;;3.57;3.10;;;;;;;;;;5034275;28;20187;-70
2020/12/27 00:04:33;;;;;;;4.93;2.67;;;;;;;;;;5014499;28;20186;-69
2020/12/27 00:07:09;;;;;;;3.43;2.67;;;;;;;;;;5009984;28;20329;-71
2020/12/27 00:09:35;;;;;;;3.30;2.60;;;;;;;;;;5013685;28;20182;-71
2020/12/27 00:12:01;;;;;;;3.80;2.30;;;;;;;;;;5008304;28;20239;-70
2020/12/27 00:14:26;;;;;;;3.70;2.63;;;;;;;;;;5031475;28;20202;-71
2020/12/27 00:16:52;;;;;;;2.90;2.50;;;;;;;;;;5010509;28;20237;-70
2020/12/27 00:19:17;;;;;;;3.73;2.73;;;;;;;;;;5009779;28;20213;-70
2020/12/27 00:21:42;;;;;;;4.03;2.17;;;;;;;;;;5007486;28;20215;-69
2020/12/27 00:24:08;;;;;;;2.30;2.10;;;;;;;;;;5014632;28;20244;-69
2020/12/27 00:26:33;;;;;;;2.70;2.23;;;;;;;;;;5010704;28;20171;-70
2020/12/27 00:28:58;;;;;;;3.53;2.50;;;;;;;;;;5024873;28;20592;-68
2020/12/27 00:31:24;;;;;;;2.37;2.13;;;;;;;;;;5015265;28;20629;-69
2020/12/27 00:33:49;;;;;;;2.73;2.07;;;;;;;;;;5026364;28;20186;-69
2020/12/27 00:36:19;;;;;;;2.03;1.83;;;;;;;;;;5023292;28;20230;-69
2020/12/27 00:38:45;;;;;;;4.23;1.80;;;;;;;;;;5031997;28;20201;-70
2020/12/27 00:41:10;;;;;;;2.20;2.00;;;;;;;;;;5026919;28;20213;-70
2020/12/27 00:43:35;;;;;;;3.00;2.00;;;;;;;;;;5020261;28;20645;-67
2020/12/27 00:46:00;;;;;;;2.30;1.90;;;;;;;;;;5028733;28;20282;-70
2020/12/27 00:48:26;;;;;;;3.93;1.80;;;;;;;;;;5021929;28;20190;-69
2020/12/27 00:50:51;;;;;;;1.67;1.57;;;;;;;;;;5028646;28;20186;-68
2020/12/27 00:53:16;;;;;;;3.83;2.20;;;;;;;;;;5020817;28;20533;-69
2020/12/27 00:55:45;;;;;;;2.00;1.80;;;;;;;;;;5027207;28;20190;-69
2020/12/27 00:58:10;;;;;;;1.57;1.47;;;;;;;;;;5021156;28;20212;-68
2020/12/27 01:00:35;;;;;;;1.83;1.43;;;;;;;;;;5027028;28;20214;-69
2020/12/27 01:03:00;;;;;;;4.10;1.70;;;;;;;;;;5016342;28;20194;-70
2020/12/27 01:05:26;;;;;;;2.23;1.60;;;;;;;;;;5025673;28;20197;-69
2020/12/27 01:07:51;;;;;;;2.53;1.90;;;;;;;;;;5020850;28;20214;-69
2020/12/27 01:10:16;;;;;;;1.87;1.67;;;;;;;;;;5026870;28;20190;-70
2020/12/27 01:12:44;;;;;;;1.93;1.43;;;;;;;;;;5023684;28;20633;-70
2020/12/27 01:15:09;;;;;;;1.73;1.40;;;;;;;;;;5017902;28;20656;-70
2020/12/27 01:17:34;;;;;;;1.83;1.70;;;;;;;;;;5018253;28;20217;-70
2020/12/27 01:20:00;;;;;;;1.87;1.30;;;;;;;;;;5018363;28;20210;-70
2020/12/27 01:22:25;;;;;;;2.40;1.37;;;;;;;;;;5030902;28;20203;-70
2020/12/27 01:24:50;;;;;;;1.50;1.30;;;;;;;;;;5020460;28;20276;-69
2020/12/27 01:27:15;;;;;;;3.33;1.50;;;;;;;;;;5030215;28;20230;-69
2020/12/27 01:29:41;;;;;;;1.23;1.13;;;;;;;;;;5012587;28;20186;-70
2020/12/27 01:32:06;;;;;;;1.60;1.27;;;;;;;;;;5030024;28;20187;-70
2020/12/27 01:34:31;;;;;;;1.53;1.20;;;;;;;;;;5019893;28;20186;-68
2020/12/27 01:36:57;;;;;;;0.80;0.80;;;;;;;;;;5027472;28;20233;-70
2020/12/27 01:39:22;;;;;;;1.07;0.97;;;;;;;;;;5022787;28;20202;-70
2020/12/27 01:41:50;;;;;;;0.87;0.87;;;;;;;;;;5025530;28;20277;-69
2020/12/27 01:44:16;;;;;;;1.30;1.13;;;;;;;;;;5030137;28;20190;-69
2020/12/27 01:46:44;;;;;;;1.13;1.00;;;;;;;;;;5017474;28;20854;-68
2020/12/27 01:49:10;;;;;;;0.77;0.77;;;;;;;;;;5024638;28;20201;-69
2020/12/27 01:51:37;;;;;;;1.27;0.90;;;;;;;;;;5022369;28;20193;-69
2020/12/27 01:54:03;;;;;;;1.07;0.97;;;;;;;;;;5030287;28;20257;-69
2020/12/27 01:56:38;;;;;;;0.67;0.67;;;;;;;;;;5017173;28;20558;-69
2020/12/27 01:59:09;;;;;;;0.80;0.80;;;;;;;;;;5030353;28;20189;-69
2020/12/27 02:01:36;;;;;;;1.20;0.80;;;;;;;;;;5017799;28;20226;-70
2020/12/27 02:04:04;;;;;;;1.10;0.80;;;;;;;;;;5029099;28;20182;-69
2020/12/27 02:06:31;;;;;;;0.77;0.60;;;;;;;;;;5014821;28;20198;-70
2020/12/27 02:08:56;;;;;;;0.83;0.73;;;;;;;;;;5028417;28;20184;-68
2020/12/27 02:11:23;;;;;;;0.73;0.73;;;;;;;;;;5019687;28;20537;-69
2020/12/27 02:13:50;;;;;;;0.90;0.80;;;;;;;;;;5028676;28;20256;-67
2020/12/27 02:16:18;;;;;;;0.90;0.70;;;;;;;;;;5014246;28;20186;-69
2020/12/27 02:18:44;;;;;;;0.80;0.80;;;;;;;;;;5024238;28;20191;-69
2020/12/27 02:21:09;;;;;;;0.63;0.50;;;;;;;;;;5025421;28;20762;-69
2020/12/27 02:23:36;;;;;;;1.23;0.90;;;;;;;;;;5021165;28;20724;-70
2020/12/27 02:26:01;;;;;;;0.70;0.70;;;;;;;;;;5038022;28;20186;-69
2020/12/27 02:28:27;;;;;;;1.13;0.60;;;;;;;;;;5018911;28;20653;-67
2020/12/27 02:30:52;;;;;;;0.83;0.80;;;;;;;;;;5023005;28;20605;-70
2020/12/27 02:33:18;;;;;;;0.80;0.80;;;;;;;;;;5021989;28;20182;-69
2020/12/27 02:35:43;;;;;;;0.60;0.60;;;;;;;;;;5024131;28;20585;-70
2020/12/27 02:38:08;;;;;;;1.07;0.50;;;;;;;;;;5018136;28;20221;-70
2020/12/27 02:40:33;;;;;;;0.70;0.70;;;;;;;;;;5019329;28;20198;-69
2020/12/27 02:42:59;;;;;;;0.67;0.60;;;;;;;;;;5017327;28;20210;-67
2020/12/27 02:45:24;;;;;;;1.00;0.90;;;;;;;;;;5024766;28;20281;-70
2020/12/27 02:47:49;;;;;;;1.10;0.70;;;;;;;;;;5016382;28;20613;-69
2020/12/27 02:50:16;;;;;;;1.40;0.93;;;;;;;;;;5025594;28;20642;-70
2020/12/27 02:52:42;;;;;;;0.90;0.80;;;;;;;;;;5027169;28;20198;-70
2020/12/27 02:55:08;;;;;;;1.57;1.17;;;;;;;;;;5017854;28;20202;-70
2020/12/27 02:57:34;;;;;;;1.10;0.93;;;;;;;;;;5021533;28;20261;-69
2020/12/27 02:59:59;;;;;;;2.70;1.30;;;;;;;;;;5013090;28;20202;-68
2020/12/27 03:02:24;;;;;;;1.00;0.80;;;;;;;;;;5026890;28;20193;-68
2020/12/27 03:04:49;;;;;;;1.13;0.83;;;;;;;;;;5016607;28;20279;-70
2020/12/27 03:07:15;;;;;;;2.30;1.00;;;;;;;;;;5026270;28;20295;-69
2020/12/27 03:09:40;;;;;;;1.33;1.10;;;;;;;;;;5017464;28;20269;-70
2020/12/27 03:12:05;;;;;;;1.80;1.40;;;;;;;;;;5027605;28;20609;-69
2020/12/27 03:14:31;;;;;;;2.00;1.47;;;;;;;;;;5018611;28;20244;-70
2020/12/27 03:16:56;;;;;;;1.93;1.33;;;;;;;;;;5027033;28;20545;-67
2020/12/27 03:19:21;;;;;;;2.27;1.40;;;;;;;;;;5017304;28;20196;-68
2020/12/27 03:21:47;;;;;;;1.60;1.20;;;;;;;;;;5021683;28;20189;-69
2020/12/27 03:24:12;;;;;;;2.40;1.47;;;;;;;;;;5024104;28;20217;-69
2020/12/27 03:26:37;;;;;;;1.50;1.20;;;;;;;;;;5017730;28;20564;-70
2020/12/27 03:29:03;;;;;;;2.50;1.60;;;;;;;;;;5023042;28;20194;-70
2020/12/27 03:31:28;;;;;;;1.53;1.40;;;;;;;;;;5017624;28;20174;-69
2020/12/27 03:33:53;;;;;;;2.50;1.63;;;;;;;;;;5025248;28;20265;-69
2020/12/27 03:36:19;;;;;;;2.13;1.40;;;;;;;;;;5030150;28;20226;-70
2020/12/27 03:38:44;;;;;;;1.70;1.60;;;;;;;;;;5021214;28;20857;-70
2020/12/27 03:41:10;;;;;;;2.43;1.53;;;;;;;;;;5019388;28;20743;-69
2020/12/27 03:43:35;;;;;;;2.00;1.70;;;;;;;;;;5022970;28;20228;-70
2020/12/27 03:46:00;;;;;;;2.07;1.37;;;;;;;;;;5020458;28;20365;-69
2020/12/27 03:48:26;;;;;;;2.73;1.60;;;;;;;;;;5020282;28;20634;-70
2020/12/27 03:50:52;;;;;;;2.03;1.63;;;;;;;;;;5013461;28;20190;-70
2020/12/27 03:53:17;;;;;;;2.73;1.50;;;;;;;;;;5021327;28;20248;-68
2020/12/27 03:55:43;;;;;;;1.67;1.30;;;;;;;;;;5018734;28;20186;-68
2020/12/27 03:58:08;;;;;;;1.70;1.60;;;;;;;;;;5018268;28;22382;-69
2020/12/27 04:00:33;;;;;;;2.17;1.47;;;;;;;;;;5021061;28;20217;-70
2020/12/27 04:02:59;;;;;;;1.77;1.10;;;;;;;;;;5015981;28;20627;-69
2020/12/27 04:05:24;;;;;;;1.57;1.20;;;;;;;;;;5023143;28;20658;-70
2020/12/27 04:07:49;;;;;;;2.17;1.60;;;;;;;;;;5017149;28;20213;-70
2020/12/27 04:10:15;;;;;;;1.73;1.20;;;;;;;;;;5023118;28;20235;-68
2020/12/27 04:12:40;;;;;;;1.63;1.20;;;;;;;;;;5015646;28;20194;-69
2020/12/27 04:15:06;;;;;;;4.20;1.50;;;;;;;;;;5022840;28;20548;-69
2020/12/27 04:17:31;;;;;;;1.77;1.10;;;;;;;;;;5015095;28;20197;-68
2020/12/27 04:19:57;;;;;;;1.70;1.30;;;;;;;;;;5024811;28;20247;-69
2020/12/27 04:22:22;;;;;;;1.60;1.23;;;;;;;;;;5016082;28;20190;-70
2020/12/27 04:24:47;;;;;;;1.43;1.20;;;;;;;;;;5023432;28;20542;-70
2020/12/27 04:27:13;;;;;;;1.20;1.10;;;;;;;;;;5026260;28;20197;-69
2020/12/27 04:29:38;;;;;;;2.50;1.10;;;;;;;;;;5015592;28;20211;-70
2020/12/27 04:32:03;;;;;;;2.13;1.20;;;;;;;;;;5026810;28;20197;-69
2020/12/27 04:34:29;;;;;;;1.67;1.10;;;;;;;;;;5015665;28;20205;-70
2020/12/27 04:36:54;;;;;;;2.93;1.60;;;;;;;;;;5024392;28;20610;-69
2020/12/27 04:39:19;;;;;;;3.17;1.87;;;;;;;;;;5015338;28;20197;-70
2020/12/27 04:41:45;;;;;;;2.37;1.70;;;;;;;;;;5027419;28;20209;-69
2020/12/27 04:44:11;;;;;;;1.83;1.57;;;;;;;;;;5016668;28;20190;-69
2020/12/27 04:46:39;;;;;;;3.23;1.47;;;;;;;;;;5025191;28;20200;-71
2020/12/27 04:49:10;;;;;;;1.57;1.23;;;;;;;;;;5015977;28;20190;-70
2020/12/27 04:51:36;;;;;;;1.60;1.23;;;;;;;;;;5016248;28;20186;-70
2020/12/27 04:54:02;;;;;;;1.47;1.27;;;;;;;;;;5013444;28;20193;-71
2020/12/27 04:56:28;;;;;;;1.67;1.20;;;;;;;;;;5021695;28;20216;-70
2020/12/27 04:58:55;;;;;;;2.00;1.43;;;;;;;;;;5022978;28;20213;-71
2020/12/27 05:01:21;;;;;;;1.13;0.93;;;;;;;;;;5018905;28;20681;-69
2020/12/27 05:03:49;;;;;;;2.20;1.17;;;;;;;;;;5016933;28;20182;-70
2020/12/27 05:06:15;;;;;;;1.23;1.00;;;;;;;;;;5008212;28;20689;-68
2020/12/27 05:08:45;;;;;;;1.67;0.80;;;;;;;;;;5016262;28;20186;-69
2020/12/27 05:11:17;;;;;;;1.10;1.00;;;;;;;;;;5007579;28;20265;-70
2020/12/27 05:13:46;;;;;;;1.47;0.90;;;;;;;;;;5018341;28;20649;-70
2020/12/27 05:16:15;;;;;;;1.67;0.80;;;;;;;;;;5011796;28;20654;-69
2020/12/27 05:18:43;;;;;;;1.10;1.00;;;;;;;;;;5021923;28;20187;-69
2020/12/27 05:21:08;;;;;;;1.53;1.13;;;;;;;;;;5014890;28;20214;-70
2020/12/27 05:23:35;;;;;;;1.10;0.90;;;;;;;;;;5024786;28;20801;-68
2020/12/27 05:26:05;;;;;;;1.17;0.90;;;;;;;;;;5009163;28;20206;-70
2020/12/27 05:28:32;;;;;;;1.07;0.90;;;;;;;;;;5022428;28;20189;-69
2020/12/27 05:30:58;;;;;;;1.40;1.10;;;;;;;;;;5009255;28;20174;-67
2020/12/27 05:33:24;;;;;;;1.00;0.87;;;;;;;;;;5026550;28;20253;-70
2020/12/27 05:36:00;;;;;;;1.07;0.97;;;;;;;;;;5024698;28;20222;-71
2020/12/27 05:38:25;;;;;;;1.50;0.80;;;;;;;;;;5018506;28;20271;-67
2020/12/27 05:40:50;;;;;;;1.60;0.90;;;;;;;;;;5015104;28;20214;-70
2020/12/27 05:43:17;;;;;;;1.40;0.80;;;;;;;;;;5013484;28;20186;-70
2020/12/27 05:45:44;;;;;;;1.30;0.97;;;;;;;;;;5023995;28;20658;-70
2020/12/27 05:48:09;;;;;;;2.43;0.90;;;;;;;;;;5016532;28;20182;-70
2020/12/27 05:50:37;;;;;;;2.37;0.80;;;;;;;;;;5025817;28;20590;-68
2020/12/27 05:53:22;;;;;;;2.50;0.97;;;;;;;;;;5018175;28;20541;-67
2020/12/27 05:55:52;;;;;;;3.13;1.00;;;;;;;;;;5029768;28;20269;-70
2020/12/27 05:58:22;;;;;;;1.53;0.93;;;;;;;;;;5018777;28;20198;-70
2020/12/27 06:00:51;;;;;;;1.50;0.90;;;;;;;;;;5025017;28;20607;-71
2020/12/27 06:03:19;;;;;;;1.27;0.73;;;;;;;;;;5012787;28;20190;-71
2020/12/27 06:05:54;;;;;;;2.03;0.87;;;;;;;;;;5020004;28;20189;-71
2020/12/27 06:08:28;;;;;;;0.90;0.77;;;;;;;;;;5017153;28;20193;-72
2020/12/27 06:10:58;;;;;;;2.50;0.80;;;;;;;;;;5026502;28;20182;-72
2020/12/27 06:13:45;;;;;;;1.00;0.80;;;;;;;;;;5017382;28;20190;-75
2020/12/27 06:16:12;;;;;;;0.90;0.70;;;;;;;;;;5023767;28;20182;-72
2020/12/27 06:18:39;;;;;;;0.87;0.70;;;;;;;;;;5019203;28;20197;-70
2020/12/27 06:21:09;;;;;;;0.87;0.80;;;;;;;;;;5025940;28;20309;-72
2020/12/27 06:23:36;;;;;;;0.70;0.70;;;;;;;;;;5016323;28;20194;-72
2020/12/27 06:26:03;;;;;;;1.63;0.90;;;;;;;;;;5026762;28;20550;-72
2020/12/27 06:28:29;;;;;;;2.13;0.60;;;;;;;;;;5029357;28;20253;-71
2020/12/27 06:30:58;;;;;;;0.80;0.60;;;;;;;;;;5011498;28;20178;-71
2020/12/27 06:33:31;;;;;;;0.50;0.40;;;;;;;;;;5030430;28;20262;-72
2020/12/27 06:35:56;;;;;;;1.10;0.77;;;;;;;;;;5017324;28;20299;-73
2020/12/27 06:38:24;;;;;;;1.07;0.80;;;;;;;;;;5017265;28;20214;-72
2020/12/27 06:41:16;;;;;;;0.70;0.40;;;;;;;;;;5011812;28;20217;-70
2020/12/27 06:43:44;;;;;;;1.10;0.30;;;;;;;;;;5023091;28;20606;-72
2020/12/27 06:46:27;;;;;;;0.77;0.50;;;;;;;;;;5015957;28;20285;-69
2020/12/27 06:49:09;;;;;;;0.67;0.60;;;;;;;;;;5021737;28;20186;-73
2020/12/27 06:51:42;;;;;;;0.50;0.50;;;;;;;;;;5017620;28;20309;-73
2020/12/27 06:54:08;;;;;;;0.67;0.50;;;;;;;;;;5019929;28;20190;-73
2020/12/27 06:56:42;;;;;;;1.50;0.60;;;;;;;;;;5017281;28;20182;-73
2020/12/27 06:59:07;;;;;;;1.13;0.50;;;;;;;;;;5025365;28;20641;-74
2020/12/27 07:01:33;;;;;;;0.33;0.33;;;;;;;;;;5016963;28;20260;-73
2020/12/27 07:04:20;;;;;;;0.60;0.40;;;;;;;;;;5025531;28;20191;-72
2020/12/27 07:06:48;;;;;;;0.53;0.30;;;;;;;;;;5016034;28;20264;-73
2020/12/27 07:09:25;;;;;;;0.53;0.40;;;;;;;;;;5018375;28;20201;-72
2020/12/27 07:12:11;;;;;;;2.23;0.40;;;;;;;;;;5015193;28;20185;-72
2020/12/27 07:14:41;;;;;;;0.60;0.40;;;;;;;;;;5021378;28;20196;-71
2020/12/27 07:17:08;;;;;;;2.80;0.50;;;;;;;;;;5018484;28;20188;-73
2020/12/27 07:19:35;;;;;;;1.50;0.47;;;;;;;;;;5020220;28;20268;-73
2020/12/27 07:22:06;;;;;;;1.07;0.43;;;;;;;;;;4314748;28;10000831;-72
2020/12/27 07:24:39;;;;;;;1.07;0.43;;;;;;;;;;5017039;28;20194;-72
2020/12/27 07:27:07;;;;;;;0.37;0.20;;;;;;;;;;5013153;28;20277;-72
2020/12/27 07:29:35;;;;;;;0.50;0.30;;;;;;;;;;5015960;28;20287;-73
2020/12/27 07:32:00;;;;;;;0.20;0.20;;;;;;;;;;5010003;28;20657;-74
2020/12/27 07:34:30;;;;;;;0.30;0.20;;;;;;;;;;5016635;28;20182;-74
2020/12/27 07:37:04;;;;;;;0.83;0.40;;;;;;;;;;5010990;28;20309;-75
2020/12/27 07:39:47;;;;;;;0.73;0.30;;;;;;;;;;5015873;28;20190;-74
2020/12/27 07:42:29;;;;;;;0.47;0.33;;;;;;;;;;5013286;28;20217;-73
2020/12/27 07:44:55;;;;;;;0.33;0.20;;;;;;;;;;5037386;28;20245;-74
2020/12/27 07:47:22;;;;;;;0.90;0.20;;;;;;;;;;5018168;28;20280;-74
2020/12/27 07:50:00;;;;;;;0.20;0.20;;;;;;;;;;5015598;28;20625;-74
2020/12/27 07:52:50;;;;;;;0.70;0.20;;;;;;;;;;5017686;28;20186;-72
2020/12/27 07:55:27;;;;;;;0.50;0.20;;;;;;;;;;5019209;28;20550;-74
2020/12/27 07:57:55;;;;;;;2.43;0.20;;;;;;;;;;5025219;28;20658;-73
2020/12/27 08:00:28;;;;;;;1.20;0.30;;;;;;;;;;5015915;28;20210;-74
2020/12/27 08:02:54;;;;;;;0.80;0.20;;;;;;;;;;5015367;28;20190;-73
2020/12/27 08:05:20;;;;;;;0.77;0.30;;;;;;;;;;5015676;28;20197;-74
2020/12/27 08:07:46;;;;;;;0.73;0.50;;;;;;;;;;5018263;28;20262;-70
2020/12/27 08:10:17;;;;;;;0.10;0.10;;;;;;;;;;5009913;28;20186;-73
2020/12/27 08:12:54;;;;;;;0.57;0.20;;;;;;;;;;5017974;28;20606;-73
2020/12/27 08:15:20;;;;;;;1.40;0.10;;;;;;;;;;5010063;28;20281;-73
2020/12/27 08:18:04;;;;;;;0.73;0.20;;;;;;;;;;5017678;28;20635;-74
2020/12/27 08:20:43;;;;;;;0.33;0.20;;;;;;;;;;5006025;28;20692;-72
2020/12/27 08:23:08;;;;;;;0.20;0.20;;;;;;;;;;5020833;28;20735;-72
2020/12/27 08:25:36;;;;;;;0.27;0.20;;;;;;;;;;5013055;28;20291;-72
2020/12/27 08:28:09;;;;;;;1.20;0.23;;;;;;;;;;5022261;28;20201;-72
2020/12/27 08:30:35;;;;;;;0.47;0.20;;;;;;;;;;5009630;28;20207;-73
2020/12/27 08:33:11;;;;;;;0.30;0.17;;;;;;;;;;5021341;28;20232;-73
2020/12/27 08:35:39;;;;;;;1.50;0.27;;;;;;;;;;5008745;28;20260;-72
2020/12/27 08:38:30;;;;;;;0.30;0.20;;;;;;;;;;5014232;28;20190;-73
2020/12/27 08:41:05;;;;;;;0.60;0.20;;;;;;;;;;5006110;28;20312;-72
2020/12/27 08:44:11;;;;;;;0.40;0.20;;;;;;;;;;5019045;28;20643;-73
2020/12/27 08:46:39;;;;;;;0.40;0.20;;;;;;;;;;4995181;28;20292;-72
2020/12/27 08:49:37;;;;;;;0.10;0.10;;;;;;;;;;5023697;28;20182;-73
2020/12/27 08:52:35;;;;;;;0.63;0.33;;;;;;;;;;5010294;28;20267;-73
2020/12/27 08:55:04;;;;;;;0.30;0.10;;;;;;;;;;5008699;28;20205;-74
2020/12/27 08:57:31;;;;;;;0.23;0.10;;;;;;;;;;5014776;28;20568;-74
2020/12/27 09:00:02;;;;;;;0.23;0.20;;;;;;;;;;5020863;28;20670;-70
2020/12/27 09:02:27;;;;;;;0.10;0.10;;;;;;;;;;5014641;28;20194;-73
2020/12/27 09:05:12;;;;;;;0.40;0.20;;;;;;;;;;5017930;28;20553;-73
2020/12/27 09:07:42;;;;;;;1.17;0.10;;;;;;;;;;5009604;28;20648;-73
2020/12/27 09:10:22;;;;;;;0.90;0.00;;;;;;;;;;5022005;28;20186;-71
2020/12/27 09:12:58;;;;;;;0.20;0.10;;;;;;;;;;5010136;28;20726;-74
2020/12/27 09:15:25;;;;;;;0.30;0.20;;;;;;;;;;5022106;28;20220;-72
2020/12/27 09:18:01;;;;;;;1.17;0.13;;;;;;;;;;5011479;28;20244;-73
2020/12/27 09:20:28;;;;;;;0.93;0.20;;;;;;;;;;5020985;28;20220;-72
2020/12/27 09:22:54;;;;;;;0.50;0.10;;;;;;;;;;5011246;28;20198;-71
2020/12/27 09:25:21;;;;;;;0.10;0.10;;;;;;;;;;5019047;28;20651;-71
2020/12/27 09:27:48;;;;;;;0.30;0.10;;;;;;;;;;5004999;28;20625;-73
2020/12/27 09:30:18;;;;;;;0.83;0.00;;;;;;;;;;5022362;28;20220;-70
2020/12/27 09:32:44;;;;;;;0.00;0.00;;;;;;;;;;5016060;28;20633;-73
2020/12/27 09:35:18;;;;;;;0.10;0.10;;;;;;;;;;5011203;28;20260;-72
2020/12/27 09:37:43;;;;;;;0.83;0.10;;;;;;;;;;5018609;28;20190;-70
2020/12/27 09:40:09;;;;;;;0.53;0.40;;;;;;;;;;5013468;28;20220;-73
2020/12/27 09:42:34;;;;;;;0.73;0.07;;;;;;;;;;5015414;28;20290;-72
2020/12/27 09:45:19;;;;;;;0.40;0.10;;;;;;;;;;5015265;28;20327;-73
2020/12/27 09:47:51;;;;;;;0.07;0.03;;;;;;;;;;5027191;28;20921;-74
2020/12/27 09:50:16;;;;;;;0.80;0.20;;;;;;;;;;5018352;28;20213;-72
2020/12/27 09:52:46;;;;;;;0.77;0.10;;;;;;;;;;5025015;28;20232;-73
2020/12/27 09:55:11;;;;;;;0.33;0.10;;;;;;;;;;5027019;28;20197;-74
2020/12/27 09:57:36;;;;;;;0.30;0.10;;;;;;;;;;5023638;28;20273;-72
2020/12/27 10:00:04;;;;;;;0.17;0.10;;;;;;;;;;5012744;28;20213;-74
2020/12/27 10:02:29;;;;;;;0.20;0.10;;;;;;;;;;5023476;28;20194;-73
2020/12/27 10:04:55;;;;;;;0.43;0.07;;;;;;;;;;5008613;28;20265;-73
2020/12/27 10:07:20;;;;;;;0.93;0.10;;;;;;;;;;5021745;28;20626;-73
2020/12/27 10:09:45;;;;;;;0.87;0.10;;;;;;;;;;5010325;28;20178;-74
2020/12/27 10:12:11;;;;;;;0.97;0.20;;;;;;;;;;5020596;28;20226;-72
2020/12/27 10:14:36;;;;;;;0.20;0.20;;;;;;;;;;5018007;28;20669;-73
2020/12/27 10:17:02;;;;;;;0.27;0.20;;;;;;;;;;5008008;28;20212;-74
2020/12/27 10:19:28;;;;;;;1.17;0.10;;;;;;;;;;5018676;28;20543;-73
2020/12/27 10:21:54;;;;;;;0.40;0.10;;;;;;;;;;5001106;28;20219;-73
2020/12/27 10:24:20;;;;;;;0.33;0.10;;;;;;;;;;5017794;28;20225;-73
2020/12/27 10:26:49;;;;;;;0.93;0.20;;;;;;;;;;5015554;28;20198;-74
2020/12/27 10:29:15;;;;;;;1.30;0.20;;;;;;;;;;5020705;28;20292;-73
2020/12/27 10:31:40;;;;;;;0.20;0.20;;;;;;;;;;5014889;28;20285;-73
2020/12/27 10:34:05;;;;;;;0.30;0.10;;;;;;;;;;5021307;28;20578;-72
2020/12/27 10:36:31;;;;;;;1.37;0.10;;;;;;;;;;5014858;28;20234;-73
2020/12/27 10:38:56;;;;;;;0.20;0.20;;;;;;;;;;5019464;28;20194;-73
2020/12/27 10:41:21;;;;;;;2.20;0.30;;;;;;;;;;5013988;28;20264;-73
2020/12/27 10:43:50;;;;;;;0.43;0.30;;;;;;;;;;5016461;28;20182;-73
2020/12/27 10:46:17;;;;;;;2.60;0.30;;;;;;;;;;5016648;28;20226;-72
2020/12/27 10:48:43;;;;;;;1.03;0.47;;;;;;;;;;5009107;28;20260;-72
2020/12/27 10:51:09;;;;;;;0.80;0.43;;;;;;;;;;5017396;28;20182;-72
2020/12/27 10:53:34;;;;;;;2.27;0.47;;;;;;;;;;5007492;28;20541;-73
2020/12/27 10:55:59;;;;;;;1.23;0.60;;;;;;;;;;5012998;28;20189;-74
2020/12/27 10:58:25;;;;;;;1.30;0.60;;;;;;;;;;5008800;28;20190;-73
2020/12/27 11:00:50;;;;;;;1.10;0.50;;;;;;;;;;5019113;28;20284;-74
2020/12/27 11:03:15;;;;;;;1.90;0.60;;;;;;;;;;5007776;28;20582;-74
2020/12/27 11:05:41;;;;;;;1.53;0.40;;;;;;;;;;5018543;28;20754;-72
2020/12/27 11:08:07;;;;;;;0.80;0.40;;;;;;;;;;5006422;28;20198;-72
2020/12/27 11:10:32;;;;;;;2.07;0.53;;;;;;;;;;5016896;28;20191;-73
2020/12/27 11:12:58;;;;;;;1.00;0.40;;;;;;;;;;5009260;28;20186;-73
2020/12/27 11:15:23;;;;;;;1.30;0.63;;;;;;;;;;5016653;28;20596;-73
2020/12/27 11:17:48;;;;;;;1.13;0.50;;;;;;;;;;5012785;28;20266;-72
2020/12/27 11:20:14;;;;;;;1.10;0.57;;;;;;;;;;5006413;28;20213;-74
2020/12/27 11:22:43;;;;;;;1.10;0.80;;;;;;;;;;5014402;28;20221;-74
2020/12/27 11:25:10;;;;;;;0.97;0.53;;;;;;;;;;5007780;28;20194;-75
2020/12/27 11:27:36;;;;;;;1.80;0.80;;;;;;;;;;5019511;28;20198;-73
2020/12/27 11:30:03;;;;;;;2.43;0.73;;;;;;;;;;5012906;28;20487;-72
2020/12/27 11:32:29;;;;;;;0.60;0.53;;;;;;;;;;5017143;28;20186;-74
2020/12/27 11:34:54;;;;;;;1.13;0.53;;;;;;;;;;5012861;28;20190;-74
2020/12/27 11:37:20;;;;;;;0.80;0.50;;;;;;;;;;5021323;28;20195;-74
2020/12/27 11:39:45;;;;;;;1.07;0.40;;;;;;;;;;5005234;28;20222;-75
2020/12/27 11:42:10;;;;;;;1.10;0.80;;;;;;;;;;5023097;28;20194;-77
2020/12/27 11:44:36;;;;;;;0.90;0.50;;;;;;;;;;5014127;28;20611;-74
2020/12/27 11:47:06;;;;;;;2.17;0.83;;;;;;;;;;5015218;28;20193;-75
2020/12/27 11:49:31;;;;;;;0.63;0.60;;;;;;;;;;5020922;28;20226;-74
2020/12/27 11:51:57;;;;;;;0.93;0.57;;;;;;;;;;5026478;28;20592;-74
2020/12/27 11:54:22;;;;;;;2.37;0.60;;;;;;;;;;5019459;28;20198;-74
2020/12/27 11:56:48;;;;;;;0.83;0.43;;;;;;;;;;5010807;28;20276;-73
2020/12/27 11:59:14;;;;;;;2.83;0.90;;;;;;;;;;5021294;28;20276;-74
2020/12/27 12:01:39;;;;;;;0.77;0.57;;;;;;;;;;5013111;28;20248;-75
2020/12/27 12:04:05;;;;;;;0.93;0.70;;;;;;;;;;5022102;28;20245;-74
2020/12/27 12:06:30;;;;;;;2.87;0.50;;;;;;;;;;5011429;28;20207;-74
2020/12/27 12:08:56;;;;;;;0.97;0.70;;;;;;;;;;5022457;28;20185;-74
2020/12/27 12:11:21;;;;;;;1.13;0.60;;;;;;;;;;5013190;28;20272;-74
2020/12/27 12:13:47;;;;;;;0.93;0.50;;;;;;;;;;5020121;28;20264;-74
2020/12/27 12:16:21;;;;;;;0.80;0.60;;;;;;;;;;5016014;28;20265;-74
2020/12/27 12:18:47;;;;;;;1.53;0.57;;;;;;;;;;5036631;28;20640;-74
2020/12/27 12:21:13;;;;;;;0.67;0.53;;;;;;;;;;5018724;28;20204;-74
2020/12/27 12:23:39;;;;;;;1.67;0.70;;;;;;;;;;5018437;28;20562;-75
2020/12/27 12:26:04;;;;;;;1.10;0.73;;;;;;;;;;5022777;28;20244;-74
2020/12/27 12:28:29;;;;;;;1.10;0.47;;;;;;;;;;5015987;28;20197;-74
2020/12/27 12:30:55;;;;;;;1.30;0.50;;;;;;;;;;5023514;28;20181;-74
2020/12/27 12:33:20;;;;;;;1.90;0.50;;;;;;;;;;5009811;28;20281;-74
2020/12/27 12:35:46;;;;;;;1.23;0.40;;;;;;;;;;5039394;28;20230;-75
2020/12/27 12:38:11;;;;;;;1.07;0.40;;;;;;;;;;5017242;28;20581;-74
2020/12/27 12:40:37;;;;;;;0.93;0.43;;;;;;;;;;5024136;28;20201;-72
2020/12/27 12:43:02;;;;;;;0.90;0.50;;;;;;;;;;5013250;28;20218;-73
2020/12/27 12:45:28;;;;;;;0.70;0.30;;;;;;;;;;5025149;28;20181;-73
2020/12/27 12:47:53;;;;;;;1.47;0.50;;;;;;;;;;5014283;28;20197;-74
2020/12/27 12:50:19;;;;;;;1.70;0.80;;;;;;;;;;5017622;28;20297;-74
2020/12/27 12:52:44;;;;;;;1.70;0.53;;;;;;;;;;5010378;28;20649;-74
2020/12/27 12:55:09;;;;;;;0.70;0.60;;;;;;;;;;5026297;28;20186;-74
2020/12/27 12:57:35;;;;;;;1.17;0.60;;;;;;;;;;5019748;28;20198;-74
2020/12/27 13:00:00;;;;;;;0.93;0.60;;;;;;;;;;5008522;28;20214;-74
2020/12/27 13:02:25;;;;;;;1.13;0.50;;;;;;;;;;5019382;28;20277;-75
2020/12/27 13:04:51;;;;;;;0.60;0.47;;;;;;;;;;5011763;28;20195;-74
2020/12/27 13:07:17;;;;;;;0.50;0.50;;;;;;;;;;5038917;28;20210;-75
2020/12/27 13:09:43;;;;;;;1.23;0.40;;;;;;;;;;5024314;28;20201;-74
2020/12/27 13:12:08;;;;;;;1.50;1.27;;;;;;;;;;5018145;28;20641;-74
2020/12/27 13:14:33;;;;;;;0.73;0.50;;;;;;;;;;5011149;28;20248;-74
2020/12/27 13:16:59;;;;;;;1.47;0.70;;;;;;;;;;5018156;28;20320;-74
2020/12/27 13:19:24;;;;;;;0.87;0.60;;;;;;;;;;5012590;28;20668;-75
2020/12/27 13:21:49;;;;;;;0.80;0.50;;;;;;;;;;5021046;28;20661;-74
2020/12/27 13:24:15;;;;;;;1.70;0.50;;;;;;;;;;5019796;28;20509;-74
2020/12/27 13:26:41;;;;;;;0.43;0.40;;;;;;;;;;5009668;28;20199;-74
2020/12/27 13:29:06;;;;;;;2.10;0.50;;;;;;;;;;5025299;28;20256;-73
2020/12/27 13:31:39;;;;;;;2.90;0.50;;;;;;;;;;5008688;28;20190;-73
2020/12/27 13:34:04;;;;;;;0.80;0.53;;;;;;;;;;5024366;28;20191;-71
2020/12/27 13:36:30;;;;;;;0.53;0.40;;;;;;;;;;5011273;28;20234;-73
2020/12/27 13:38:56;;;;;;;1.10;0.60;;;;;;;;;;5020436;28;20182;-73
2020/12/27 13:41:21;;;;;;;0.83;0.63;;;;;;;;;;5011616;28;20319;-70
2020/12/27 13:43:46;;;;;;;1.00;0.60;;;;;;;;;;5028266;28;20711;-74
2020/12/27 13:46:15;;;;;;;1.17;0.53;;;;;;;;;;5032181;28;20613;-72
2020/12/27 13:48:43;;;;;;;0.90;0.40;;;;;;;;;;5026122;28;20182;-73
2020/12/27 13:51:08;;;;;;;0.87;0.67;;;;;;;;;;5016462;28;20309;-73
2020/12/27 13:53:34;;;;;;;0.83;0.60;;;;;;;;;;5020324;28;20667;-74
2020/12/27 13:55:59;;;;;;;1.27;0.70;;;;;;;;;;5016353;28;20236;-74
2020/12/27 13:58:27;;;;;;;1.63;0.60;;;;;;;;;;5020990;28;20217;-73
2020/12/27 14:00:52;;;;;;;1.00;0.70;;;;;;;;;;5018409;28;20746;-75
2020/12/27 14:03:17;;;;;;;2.70;0.80;;;;;;;;;;5010938;28;20218;-74
2020/12/27 14:05:43;;;;;;;0.83;0.60;;;;;;;;;;5023699;28;20190;-74
2020/12/27 14:08:08;;;;;;;1.10;0.40;;;;;;;;;;5012968;28;20661;-73
2020/12/27 14:10:33;;;;;;;0.60;0.50;;;;;;;;;;5021846;28;20711;-74
2020/12/27 14:12:59;;;;;;;0.40;0.40;;;;;;;;;;5018329;28;20232;-73
2020/12/27 14:15:24;;;;;;;2.47;0.70;;;;;;;;;;5023407;28;20182;-74
2020/12/27 14:17:49;;;;;;;1.43;0.50;;;;;;;;;;5015176;28;20194;-74
2020/12/27 14:20:15;;;;;;;0.70;0.57;;;;;;;;;;5026501;28;20309;-74
2020/12/27 14:22:40;;;;;;;0.90;0.67;;;;;;;;;;5014463;28;20205;-74
2020/12/27 14:25:05;;;;;;;0.70;0.67;;;;;;;;;;5023177;28;20633;-72
2020/12/27 14:27:31;;;;;;;0.97;0.80;;;;;;;;;;5026675;28;20189;-72
2020/12/27 14:29:57;;;;;;;1.60;0.80;;;;;;;;;;5012842;28;20269;-73
2020/12/27 14:32:22;;;;;;;3.00;1.97;;;;;;;;;;5025843;28;20181;-74
2020/12/27 14:34:47;;;;;;;2.67;0.90;;;;;;;;;;5011138;28;20186;-73
2020/12/27 14:37:13;;;;;;;5.20;2.87;;;;;;;;;;5026637;28;20193;-74
2020/12/27 14:39:38;;;;;;;1.97;1.07;;;;;;;;;;5013917;28;20194;-73
2020/12/27 14:42:03;;;;;;;9.40;6.50;;;;;;;;;;5024031;28;20179;-74
2020/12/27 14:44:29;;;;;;;5.77;1.87;;;;;;;;;;5013732;28;20186;-74
2020/12/27 14:46:54;;;;;;;3.30;2.00;;;;;;;;;;5014471;28;20174;-75